Terminal Aerodrome Forecast
Issued by NWS Boston, MA

Current Version | Previous Version | Text Only | Print | Product List | Glossary On
Versions: 1 2 3 4 5 6 7 8 9 10 11 12 13 14 15 16 17 18 19 20 21
000 FTUS41 KBOX 102113 AAA TAFPVD TAF AMD KPVD 102113Z 1021/1118 31006KT P6SM SKC FM110000 31004KT P6SM FEW250 FM111100 VRB03KT P6SM FEW150 FM111700 22004KT P6SM BKN110=

USA.gov is the U.S. government's official web portal to all federal, state and local government web resources and services.